Time;durP1;ratioP1;P1;durP2;ratioP2;P2;SDS_P1;SDS_P2;PMS_P1;PMS_P2;Temp;Humidity;BMP_temperature;BMP_pressure;BME280_temperature;BME280_humidity;BME280_pressure;Samples;Min_cycle;Max_cycle;Signal;HPM_P1;HPM_P2
2022/03/22 00:02:17;;;;;;;;;;;3.90;78.70;;;;;;5021024;28;19945;-70
2022/03/22 00:04:43;;;;;;;;;;;3.90;79.70;;;;;;5022519;28;20013;-70
2022/03/22 00:07:08;;;;;;;;;;;3.80;80.80;;;;;;5021572;28;19918;-69
2022/03/22 00:09:36;;;;;;;;;;;3.70;81.40;;;;;;5022481;28;19980;-70
2022/03/22 00:12:02;;;;;;;;;;;3.80;80.40;;;;;;5022187;28;19910;-70
2022/03/22 00:14:28;;;;;;;;;;;3.80;79.80;;;;;;5022625;28;19956;-70
2022/03/22 00:16:53;;;;;;;;;;;3.70;79.90;;;;;;5022365;28;19913;-70
2022/03/22 00:19:22;;;;;;;;;;;3.50;80.80;;;;;;5022826;28;19917;-69
2022/03/22 00:21:48;;;;;;;;;;;3.50;81.00;;;;;;5025862;28;19917;-69
2022/03/22 00:24:13;;;;;;;;;;;3.50;81.20;;;;;;5025573;28;19921;-69
2022/03/22 00:26:39;;;;;;;;;;;3.40;81.80;;;;;;5025902;28;19984;-69
2022/03/22 00:29:05;;;;;;;;;;;3.40;81.60;;;;;;5025281;28;20024;-70
2022/03/22 00:31:30;;;;;;;;;;;3.40;81.80;;;;;;5025512;28;19909;-69
2022/03/22 00:33:56;;;;;;;;;;;3.40;82.10;;;;;;5025853;28;19980;-69
2022/03/22 00:36:22;;;;;;;;;;;3.40;82.10;;;;;;5041228;28;19951;-69
2022/03/22 00:38:48;;;;;;;;;;;3.40;82.40;;;;;;5025371;28;19921;-70
2022/03/22 00:41:16;;;;;;;;;;;3.40;82.40;;;;;;5024821;28;19956;-70
2022/03/22 00:43:46;;;;;;;;;;;3.30;83.20;;;;;;5025285;28;19951;-70
2022/03/22 00:46:12;;;;;;;;;;;3.30;84.00;;;;;;5025581;28;19909;-71
2022/03/22 00:48:38;;;;;;;;;;;3.10;84.20;;;;;;5025499;28;19951;-71
2022/03/22 00:51:04;;;;;;;;;;;3.10;84.40;;;;;;5025190;28;19916;-70
2022/03/22 00:53:30;;;;;;;;;;;3.00;84.60;;;;;;5040752;28;19945;-70
2022/03/22 00:55:56;;;;;;;;;;;3.00;84.60;;;;;;5025334;28;19916;-69
2022/03/22 00:58:21;;;;;;;;;;;3.00;84.00;;;;;;5025150;28;19910;-70
2022/03/22 01:00:48;;;;;;;;;;;3.00;84.00;;;;;;5024940;28;20156;-69
2022/03/22 01:03:13;;;;;;;;;;;2.90;84.30;;;;;;5025254;28;19997;-69
2022/03/22 01:05:39;;;;;;;;;;;2.90;84.60;;;;;;5040661;28;19913;-69
2022/03/22 01:08:06;;;;;;;;;;;2.80;84.70;;;;;;5024045;28;19913;-69
2022/03/22 01:10:34;;;;;;;;;;;2.80;84.80;;;;;;5023936;28;19918;-68
2022/03/22 01:13:00;;;;;;;;;;;2.80;84.90;;;;;;5025077;28;19956;-69
2022/03/22 01:15:32;;;;;;;;;;;2.70;85.00;;;;;;5022935;28;19913;-69
2022/03/22 01:17:58;;;;;;;;;;;2.70;84.80;;;;;;5024961;28;19984;-69
2022/03/22 01:20:26;;;;;;;;;;;2.70;84.90;;;;;;5040268;28;19916;-69
2022/03/22 01:22:52;;;;;;;;;;;2.70;84.60;;;;;;5024446;28;19913;-69
2022/03/22 01:25:19;;;;;;;;;;;2.70;85.40;;;;;;5024801;28;19921;-69
2022/03/22 01:27:46;;;;;;;;;;;2.60;85.80;;;;;;5023633;28;19917;-70
2022/03/22 01:30:15;;;;;;;;;;;2.40;86.50;;;;;;5023296;28;19916;-70
2022/03/22 01:32:42;;;;;;;;;;;2.30;86.60;;;;;;5024393;28;20197;-70
2022/03/22 01:35:11;;;;;;;;;;;2.30;86.60;;;;;;5023525;28;19939;-70
2022/03/22 01:37:37;;;;;;;;;;;2.30;86.70;;;;;;5024368;28;19956;-70
2022/03/22 01:40:04;;;;;;;;;;;2.20;86.50;;;;;;5039870;28;19917;-70
2022/03/22 01:42:30;;;;;;;;;;;2.20;86.30;;;;;;5023071;28;19909;-70
2022/03/22 01:44:55;;;;;;;;;;;2.20;86.60;;;;;;5038931;28;20258;-70
2022/03/22 01:47:23;;;;;;;;;;;2.20;86.40;;;;;;5024325;28;20120;-70
2022/03/22 01:49:50;;;;;;;;;;;2.10;86.40;;;;;;5039419;28;19910;-70
2022/03/22 01:52:20;;;;;;;;;;;2.10;86.20;;;;;;5024322;28;20167;-70
2022/03/22 01:54:49;;;;;;;;;;;2.00;86.40;;;;;;5039558;28;19932;-70
2022/03/22 01:57:14;;;;;;;;;;;2.00;86.60;;;;;;5024077;28;20224;-70
2022/03/22 01:59:40;;;;;;;;;;;1.90;86.80;;;;;;5039118;28;19909;-70
2022/03/22 02:07:36;;;;;;;;;;;1.80;87.00;;;;;;5023876;28;19931;-70
2022/03/22 02:10:01;;;;;;;;;;;1.80;86.80;;;;;;5039078;28;19976;-70
2022/03/22 02:12:27;;;;;;;;;;;1.80;86.70;;;;;;5023641;28;19964;-70
2022/03/22 02:14:53;;;;;;;;;;;1.80;86.80;;;;;;5023739;28;19917;-70
2022/03/22 02:17:18;;;;;;;;;;;1.80;86.90;;;;;;5023722;28;20204;-70
2022/03/22 02:19:44;;;;;;;;;;;1.70;86.90;;;;;;5023080;28;20004;-70
2022/03/22 02:22:11;;;;;;;;;;;1.60;87.00;;;;;;5022422;28;20108;-70
2022/03/22 02:24:37;;;;;;;;;;;1.60;87.20;;;;;;5023352;28;19921;-70
2022/03/22 02:27:03;;;;;;;;;;;1.60;87.20;;;;;;5023575;28;19924;-70
2022/03/22 02:29:29;;;;;;;;;;;1.60;87.40;;;;;;5038133;28;20120;-70
2022/03/22 02:31:54;;;;;;;;;;;1.60;87.40;;;;;;5023044;28;19909;-70
2022/03/22 02:34:20;;;;;;;;;;;1.50;87.50;;;;;;5022304;28;20090;-70
2022/03/22 02:36:46;;;;;;;;;;;1.50;87.70;;;;;;5023421;28;19916;-70
2022/03/22 02:39:12;;;;;;;;;;;1.40;88.00;;;;;;5023367;28;19948;-70
2022/03/22 02:41:38;;;;;;;;;;;1.40;87.90;;;;;;5022867;28;20161;-70
2022/03/22 02:44:04;;;;;;;;;;;1.50;87.50;;;;;;5022788;28;19922;-70
2022/03/22 02:46:30;;;;;;;;;;;1.40;87.70;;;;;;5023062;28;19916;-70
2022/03/22 02:48:55;;;;;;;;;;;1.50;87.90;;;;;;5023136;28;19910;-70
2022/03/22 02:51:21;;;;;;;;;;;1.40;88.10;;;;;;5022917;28;19916;-70
2022/03/22 02:53:47;;;;;;;;;;;1.30;88.40;;;;;;5023108;28;19972;-69
2022/03/22 02:56:12;;;;;;;;;;;1.30;88.50;;;;;;5023065;28;19925;-69
2022/03/22 02:58:38;;;;;;;;;;;1.30;88.50;;;;;;5022876;28;19924;-69
2022/03/22 03:01:04;;;;;;;;;;;1.30;88.60;;;;;;5022602;28;20024;-69
2022/03/22 03:03:30;;;;;;;;;;;1.30;88.80;;;;;;5022884;28;19914;-69
2022/03/22 03:05:56;;;;;;;;;;;1.30;89.00;;;;;;5023119;28;19909;-69
2022/03/22 03:08:26;;;;;;;;;;;1.30;88.70;;;;;;5022333;28;19976;-70
2022/03/22 03:10:52;;;;;;;;;;;1.20;89.20;;;;;;5022706;28;19915;-69
2022/03/22 03:13:18;;;;;;;;;;;1.20;89.60;;;;;;5022722;28;19918;-69
2022/03/22 03:15:44;;;;;;;;;;;1.10;89.70;;;;;;5022249;28;19928;-69
2022/03/22 03:18:10;;;;;;;;;;;1.20;89.70;;;;;;5022740;28;19909;-69
2022/03/22 03:20:36;;;;;;;;;;;1.10;90.00;;;;;;5037837;28;19917;-69
2022/03/22 03:23:02;;;;;;;;;;;1.10;90.00;;;;;;5022729;28;19945;-69
2022/03/22 03:25:28;;;;;;;;;;;1.10;90.00;;;;;;5021882;28;19932;-69
2022/03/22 03:27:53;;;;;;;;;;;1.00;90.10;;;;;;5021089;28;20267;-70
2022/03/22 03:30:19;;;;;;;;;;;1.00;90.20;;;;;;5022734;28;19940;-70
2022/03/22 03:32:45;;;;;;;;;;;1.00;90.20;;;;;;5037187;28;19972;-70
2022/03/22 03:35:10;;;;;;;;;;;1.00;90.20;;;;;;5022670;28;19910;-70
2022/03/22 03:37:37;;;;;;;;;;;1.00;90.00;;;;;;5022464;28;19914;-70
2022/03/22 03:40:03;;;;;;;;;;;1.00;90.00;;;;;;5022661;28;20210;-70
2022/03/22 03:42:29;;;;;;;;;;;1.00;90.10;;;;;;5021060;28;19959;-70
2022/03/22 03:47:39;;;;;;;;;;;0.90;90.40;;;;;;5022506;28;19920;-69
2022/03/22 03:50:06;;;;;;;;;;;0.90;90.30;;;;;;5022556;28;19909;-69
2022/03/22 03:52:34;;;;;;;;;;;0.80;90.40;;;;;;5037539;28;20204;-70
2022/03/22 03:55:00;;;;;;;;;;;0.80;90.60;;;;;;5024090;28;19913;-69
2022/03/22 03:57:26;;;;;;;;;;;0.70;90.70;;;;;;5026467;28;19910;-69
2022/03/22 03:59:52;;;;;;;;;;;0.70;91.00;;;;;;5041524;28;19909;-69
2022/03/22 04:02:18;;;;;;;;;;;0.70;91.10;;;;;;5025919;28;19932;-69
2022/03/22 04:04:44;;;;;;;;;;;0.70;91.30;;;;;;5026233;28;19945;-70
2022/03/22 04:07:10;;;;;;;;;;;0.70;91.40;;;;;;5041602;28;19909;-69
2022/03/22 04:09:37;;;;;;;;;;;0.60;91.40;;;;;;5024937;28;19936;-69
2022/03/22 04:12:03;;;;;;;;;;;0.70;91.30;;;;;;5025848;28;20280;-69
2022/03/22 04:14:29;;;;;;;;;;;0.70;91.50;;;;;;5041148;28;20221;-70
2022/03/22 04:16:57;;;;;;;;;;;0.70;91.60;;;;;;5041391;28;19916;-69
2022/03/22 04:19:26;;;;;;;;;;;0.60;91.50;;;;;;5040990;28;19917;-70
2022/03/22 04:21:52;;;;;;;;;;;0.60;91.50;;;;;;5024508;28;19910;-69
2022/03/22 04:24:18;;;;;;;;;;;0.60;91.50;;;;;;5041177;28;19943;-69
2022/03/22 04:26:44;;;;;;;;;;;0.60;91.50;;;;;;5024644;28;19924;-69
2022/03/22 04:32:41;;;;;;;;;;;0.60;91.30;;;;;;5038558;28;19917;-69
2022/03/22 04:34:41;;;;;;;;;;;0.70;91.30;;;;;;5025568;28;19917;-69
2022/03/22 04:37:07;;;;;;;;;;;0.70;91.30;;;;;;5041069;28;19937;-70
2022/03/22 04:39:35;;;;;;;;;;;0.60;91.50;;;;;;5025663;28;19924;-69
2022/03/22 04:42:01;;;;;;;;;;;0.60;91.50;;;;;;5025274;28;19916;-68
2022/03/22 04:44:28;;;;;;;;;;;0.60;91.60;;;;;;5024952;28;19917;-69
2022/03/22 04:46:54;;;;;;;;;;;0.60;91.80;;;;;;5023950;28;20124;-69
2022/03/22 04:49:20;;;;;;;;;;;0.50;92.00;;;;;;5024035;28;19956;-70
2022/03/22 04:57:15;;;;;;;;;;;0.40;92.20;;;;;;5024795;28;19924;-70
2022/03/22 04:59:42;;;;;;;;;;;0.50;92.20;;;;;;5021849;28;19917;-69
2022/03/22 05:02:08;;;;;;;;;;;0.50;92.00;;;;;;5024459;28;20363;-70
2022/03/22 05:04:34;;;;;;;;;;;0.40;92.10;;;;;;5037518;28;19917;-69
2022/03/22 05:07:00;;;;;;;;;;;0.50;92.00;;;;;;5024463;28;19917;-69
2022/03/22 05:09:28;;;;;;;;;;;0.50;92.10;;;;;;5024135;28;19980;-69
2022/03/22 05:11:55;;;;;;;;;;;0.50;92.20;;;;;;5036550;28;19921;-69
2022/03/22 05:14:20;;;;;;;;;;;0.40;92.20;;;;;;5040542;28;19909;-70
2022/03/22 05:16:46;;;;;;;;;;;0.40;92.40;;;;;;5024872;28;20039;-71
2022/03/22 05:19:13;;;;;;;;;;;0.40;92.30;;;;;;5024997;28;19909;-70
2022/03/22 05:21:39;;;;;;;;;;;0.40;92.40;;;;;;5024639;28;19917;-70
2022/03/22 05:24:08;;;;;;;;;;;0.30;92.40;;;;;;5024724;28;20163;-69
2022/03/22 05:26:34;;;;;;;;;;;0.30;92.30;;;;;;5024429;28;19917;-70
2022/03/22 05:29:04;;;;;;;;;;;0.30;92.40;;;;;;5039937;28;19909;-69
2022/03/22 05:31:31;;;;;;;;;;;0.30;92.30;;;;;;5021194;28;20205;-71
2022/03/22 05:33:57;;;;;;;;;;;0.20;92.30;;;;;;5023462;28;20016;-69
2022/03/22 05:36:22;;;;;;;;;;;0.20;92.40;;;;;;5024240;28;19913;-70
2022/03/22 05:38:48;;;;;;;;;;;0.20;92.20;;;;;;5018010;28;20124;-70
2022/03/22 05:41:14;;;;;;;;;;;0.20;92.20;;;;;;5023834;28;19909;-69
2022/03/22 05:43:39;;;;;;;;;;;0.20;92.30;;;;;;5024252;28;19933;-69
2022/03/22 05:46:05;;;;;;;;;;;0.20;92.20;;;;;;5024265;28;19924;-70
2022/03/22 05:48:31;;;;;;;;;;;0.20;92.00;;;;;;5022383;28;20120;-71
2022/03/22 05:50:57;;;;;;;;;;;0.20;91.80;;;;;;5023438;28;19909;-71
2022/03/22 05:53:23;;;;;;;;;;;0.20;91.40;;;;;;5016841;28;20036;-71
2022/03/22 05:55:48;;;;;;;;;;;0.20;91.00;;;;;;5020024;28;20263;-71
2022/03/22 05:58:14;;;;;;;;;;;0.30;90.80;;;;;;5020067;28;19914;-71
2022/03/22 06:00:40;;;;;;;;;;;0.30;90.70;;;;;;5014422;28;19913;-72
2022/03/22 06:03:06;;;;;;;;;;;0.40;90.40;;;;;;5022854;28;20205;-73
2022/03/22 06:05:31;;;;;;;;;;;0.60;90.20;;;;;;5023782;28;19909;-72
2022/03/22 06:07:58;;;;;;;;;;;0.60;90.10;;;;;;5023873;28;19925;-72
2022/03/22 06:10:24;;;;;;;;;;;0.70;89.70;;;;;;5022572;28;20216;-73
2022/03/22 06:12:55;;;;;;;;;;;0.80;89.30;;;;;;5022359;28;19947;-72
2022/03/22 06:15:23;;;;;;;;;;;0.80;89.00;;;;;;5022960;28;19947;-72
2022/03/22 06:17:53;;;;;;;;;;;0.80;88.50;;;;;;5021538;28;19917;-72
2022/03/22 06:20:20;;;;;;;;;;;0.80;88.60;;;;;;5023831;28;19917;-73
2022/03/22 06:22:46;;;;;;;;;;;0.90;88.50;;;;;;5022106;28;20373;-73
2022/03/22 06:25:13;;;;;;;;;;;1.00;87.60;;;;;;5030040;28;19909;-71
2022/03/22 06:27:40;;;;;;;;;;;1.10;86.70;;;;;;5042086;28;19917;-71
2022/03/22 06:30:06;;;;;;;;;;;1.10;85.80;;;;;;5042557;28;19916;-71
2022/03/22 06:32:54;;;;;;;;;;;1.10;85.80;;;;;;5042044;28;19940;-73
2022/03/22 06:35:30;;;;;;;;;;;1.10;85.70;;;;;;5000819;28;19910;-75
2022/03/22 06:37:56;;;;;;;;;;;1.20;85.80;;;;;;5015507;28;19922;-74
2022/03/22 06:40:23;;;;;;;;;;;1.40;85.60;;;;;;5018722;28;19909;-74
2022/03/22 06:42:49;;;;;;;;;;;1.40;85.60;;;;;;5003336;28;19989;-76
2022/03/22 06:45:15;;;;;;;;;;;1.50;85.60;;;;;;5016833;28;19910;-77
2022/03/22 06:47:41;;;;;;;;;;;1.60;85.40;;;;;;5025006;28;19951;-79
2022/03/22 06:50:08;;;;;;;;;;;1.60;85.10;;;;;;5029453;28;19917;-79
2022/03/22 06:52:34;;;;;;;;;;;1.70;84.80;;;;;;5026416;28;19932;-78
2022/03/22 06:55:00;;;;;;;;;;;1.80;84.50;;;;;;5023450;28;19909;-77
2022/03/22 06:57:28;;;;;;;;;;;2.00;83.80;;;;;;5043021;28;20012;-78
2022/03/22 06:59:58;;;;;;;;;;;2.10;82.80;;;;;;5023992;28;19910;-79
2022/03/22 07:02:24;;;;;;;;;;;2.20;82.30;;;;;;5021805;28;19945;-78
2022/03/22 07:04:50;;;;;;;;;;;2.30;81.60;;;;;;5023244;28;19920;-79
2022/03/22 07:07:15;;;;;;;;;;;2.40;80.20;;;;;;5027913;28;19917;-78
2022/03/22 07:09:42;;;;;;;;;;;2.50;79.90;;;;;;5026516;28;19917;-78
2022/03/22 07:12:08;;;;;;;;;;;2.60;78.90;;;;;;5026669;28;20123;-79
2022/03/22 07:14:35;;;;;;;;;;;2.60;77.90;;;;;;5024804;28;19996;-79
2022/03/22 07:17:01;;;;;;;;;;;2.70;76.30;;;;;;5024746;28;19945;-79
2022/03/22 07:19:26;;;;;;;;;;;2.80;75.90;;;;;;5034728;28;20263;-80
2022/03/22 07:21:52;;;;;;;;;;;2.90;73.30;;;;;;5024272;28;19916;-80
2022/03/22 07:24:18;;;;;;;;;;;3.00;73.40;;;;;;5023953;28;20011;-79
2022/03/22 07:26:47;;;;;;;;;;;3.10;72.70;;;;;;5024573;28;19909;-80
2022/03/22 07:29:13;;;;;;;;;;;3.20;71.30;;;;;;5024087;28;19909;-79
2022/03/22 07:31:40;;;;;;;;;;;3.40;70.20;;;;;;5040760;28;19968;-79
2022/03/22 07:34:09;;;;;;;;;;;3.50;68.40;;;;;;5040803;28;19952;-79
2022/03/22 07:36:39;;;;;;;;;;;3.60;67.50;;;;;;5025432;28;19909;-80
2022/03/22 07:39:08;;;;;;;;;;;3.80;67.30;;;;;;5024440;28;19952;-79
2022/03/22 07:41:34;;;;;;;;;;;3.90;65.70;;;;;;5025505;28;19940;-79
2022/03/22 07:44:01;;;;;;;;;;;4.10;64.10;;;;;;5026719;28;19914;-79
2022/03/22 07:46:27;;;;;;;;;;;4.60;56.80;;;;;;5029790;28;19910;-79
2022/03/22 07:48:53;;;;;;;;;;;4.90;54.20;;;;;;5029631;28;19916;-78
2022/03/22 07:54:03;;;;;;;;;;;5.40;51.60;;;;;;5024025;28;19917;-79
2022/03/22 07:56:30;;;;;;;;;;;5.60;50.70;;;;;;5025064;28;19984;-79
2022/03/22 07:58:57;;;;;;;;;;;5.60;51.20;;;;;;5023812;28;19984;-80
2022/03/22 08:01:24;;;;;;;;;;;5.60;51.70;;;;;;5040210;28;19932;-79
2022/03/22 08:03:51;;;;;;;;;;;5.80;48.70;;;;;;5040313;28;19913;-79
2022/03/22 08:06:16;;;;;;;;;;;6.00;48.80;;;;;;5022447;28;19963;-80
2022/03/22 08:08:44;;;;;;;;;;;6.00;49.00;;;;;;5040793;28;19917;-79
2022/03/22 08:11:10;;;;;;;;;;;6.10;49.50;;;;;;5026668;28;19932;-79
2022/03/22 08:13:39;;;;;;;;;;;6.20;49.00;;;;;;5025335;28;19913;-79
2022/03/22 08:16:05;;;;;;;;;;;6.30;48.40;;;;;;5025617;28;19909;-79
2022/03/22 08:18:31;;;;;;;;;;;6.60;46.10;;;;;;5008691;28;19977;-78
2022/03/22 08:20:56;;;;;;;;;;;6.60;46.60;;;;;;5025007;28;19920;-78
2022/03/22 08:23:22;;;;;;;;;;;6.80;46.60;;;;;;5024776;28;19936;-78
2022/03/22 08:25:50;;;;;;;;;;;6.90;45.50;;;;;;5008759;28;19967;-79
2022/03/22 08:28:16;;;;;;;;;;;7.10;45.20;;;;;;5042157;28;19952;-79
2022/03/22 08:30:42;;;;;;;;;;;7.00;46.60;;;;;;5026749;28;19916;-79
2022/03/22 08:33:11;;;;;;;;;;;7.20;45.50;;;;;;5025213;28;20276;-79
2022/03/22 08:35:45;;;;;;;;;;;7.40;44.80;;;;;;5041094;28;20061;-79
2022/03/22 08:38:11;;;;;;;;;;;7.50;45.20;;;;;;5024353;28;19914;-79
2022/03/22 08:40:38;;;;;;;;;;;7.50;44.50;;;;;;5022340;28;19913;-78
2022/03/22 08:43:13;;;;;;;;;;;7.60;44.50;;;;;;5024991;28;20153;-79
2022/03/22 08:45:39;;;;;;;;;;;7.70;45.10;;;;;;5025222;28;19918;-79
2022/03/22 08:48:09;;;;;;;;;;;7.90;45.10;;;;;;5024943;28;19916;-79
2022/03/22 08:50:36;;;;;;;;;;;8.10;43.40;;;;;;5025734;28;19933;-78
2022/03/22 08:53:02;;;;;;;;;;;8.10;43.20;;;;;;5024775;28;19910;-78
2022/03/22 08:55:29;;;;;;;;;;;8.10;43.60;;;;;;5008335;28;19960;-79
2022/03/22 08:57:55;;;;;;;;;;;8.20;44.00;;;;;;5024846;28;20089;-79
2022/03/22 09:00:21;;;;;;;;;;;8.10;44.20;;;;;;5041412;28;19909;-79
2022/03/22 09:02:48;;;;;;;;;;;8.20;44.30;;;;;;5034340;28;20169;-79
2022/03/22 09:08:00;;;;;;;;;;;8.70;41.60;;;;;;5024577;28;19952;-78
2022/03/22 09:10:27;;;;;;;;;;;8.80;42.10;;;;;;5041316;28;20107;-78
2022/03/22 09:12:52;;;;;;;;;;;9.00;41.70;;;;;;5025529;28;20212;-78
2022/03/22 09:15:19;;;;;;;;;;;9.10;40.90;;;;;;5024463;28;19960;-79
2022/03/22 09:17:45;;;;;;;;;;;9.20;41.40;;;;;;5024418;28;20251;-79
2022/03/22 09:20:14;;;;;;;;;;;9.30;39.60;;;;;;5024307;28;20192;-78
2022/03/22 09:22:43;;;;;;;;;;;9.40;39.30;;;;;;5024570;28;20237;-79
2022/03/22 09:25:10;;;;;;;;;;;9.60;39.30;;;;;;5008110;28;19914;-78
2022/03/22 09:27:36;;;;;;;;;;;9.70;38.80;;;;;;5007945;28;19917;-79
2022/03/22 09:30:03;;;;;;;;;;;9.90;37.30;;;;;;5041829;28;19909;-80
2022/03/22 09:32:29;;;;;;;;;;;10.00;36.50;;;;;;5025245;28;19945;-79
2022/03/22 09:34:54;;;;;;;;;;;10.20;34.90;;;;;;5026204;28;19932;-79
2022/03/22 09:37:20;;;;;;;;;;;10.30;35.50;;;;;;5025823;28;19957;-80
2022/03/22 09:39:46;;;;;;;;;;;10.30;36.50;;;;;;5026296;28;19971;-79
2022/03/22 09:42:12;;;;;;;;;;;10.40;35.60;;;;;;5025650;28;19909;-79
2022/03/22 09:44:37;;;;;;;;;;;10.50;35.40;;;;;;5040973;28;19913;-79
2022/03/22 09:47:04;;;;;;;;;;;10.60;35.80;;;;;;5025640;28;19983;-79
2022/03/22 09:49:29;;;;;;;;;;;10.70;34.80;;;;;;5024528;28;19916;-81
2022/03/22 09:51:55;;;;;;;;;;;10.90;34.10;;;;;;5040172;28;19910;-79
2022/03/22 09:54:24;;;;;;;;;;;10.90;34.20;;;;;;5023489;28;19976;-78
2022/03/22 09:56:50;;;;;;;;;;;11.10;33.00;;;;;;5023776;28;19916;-79
2022/03/22 09:59:17;;;;;;;;;;;11.10;32.60;;;;;;5024974;28;19916;-78
2022/03/22 10:01:44;;;;;;;;;;;11.20;32.80;;;;;;5023807;28;19910;-78
2022/03/22 10:04:13;;;;;;;;;;;11.20;34.10;;;;;;5040378;28;19982;-78
2022/03/22 10:06:57;;;;;;;;;;;11.30;36.90;;;;;;5025220;28;20213;-77
2022/03/22 10:09:33;;;;;;;;;;;11.50;35.70;;;;;;5037561;28;19932;-78
2022/03/22 10:11:59;;;;;;;;;;;11.60;34.70;;;;;;5023395;28;19909;-78
2022/03/22 10:14:41;;;;;;;;;;;11.90;33.60;;;;;;5023758;28;19963;-78
2022/03/22 10:17:14;;;;;;;;;;;12.00;33.70;;;;;;5023794;28;19937;-79
2022/03/22 10:19:41;;;;;;;;;;;12.10;33.80;;;;;;5024050;28;19988;-79
2022/03/22 10:22:10;;;;;;;;;;;12.30;35.20;;;;;;5023903;28;19909;-79
2022/03/22 10:24:49;;;;;;;;;;;12.30;32.10;;;;;;5024579;28;20362;-79
2022/03/22 10:27:24;;;;;;;;;;;12.50;33.60;;;;;;5039942;28;19986;-79
2022/03/22 10:29:50;;;;;;;;;;;12.70;31.70;;;;;;5024783;28;19914;-79
2022/03/22 10:32:17;;;;;;;;;;;12.80;33.00;;;;;;5039465;28;19947;-79
2022/03/22 10:34:42;;;;;;;;;;;12.90;32.50;;;;;;5006987;28;19916;-79
2022/03/22 10:37:09;;;;;;;;;;;13.10;31.00;;;;;;5039748;28;19985;-79
2022/03/22 10:39:38;;;;;;;;;;;13.30;30.50;;;;;;5025530;28;19948;-79
2022/03/22 10:42:05;;;;;;;;;;;13.50;30.20;;;;;;5039979;28;19922;-79
2022/03/22 10:44:34;;;;;;;;;;;13.60;30.60;;;;;;5024567;28;19960;-79
2022/03/22 10:47:02;;;;;;;;;;;13.70;30.00;;;;;;5023988;28;19916;-79
2022/03/22 10:49:28;;;;;;;;;;;13.80;30.90;;;;;;5023716;28;19909;-79
2022/03/22 10:51:54;;;;;;;;;;;14.00;30.00;;;;;;5039617;28;20064;-77
2022/03/22 10:54:20;;;;;;;;;;;14.10;29.50;;;;;;5023386;28;19910;-76
2022/03/22 10:56:49;;;;;;;;;;;14.20;29.20;;;;;;5039700;28;19909;-79
2022/03/22 10:59:16;;;;;;;;;;;14.30;29.70;;;;;;5024541;28;19910;-79
2022/03/22 11:01:43;;;;;;;;;;;14.60;28.50;;;;;;5019625;28;19909;-78
2022/03/22 11:04:09;;;;;;;;;;;14.70;28.40;;;;;;5020798;28;19944;-77
2022/03/22 11:06:34;;;;;;;;;;;14.80;28.30;;;;;;5022952;28;19981;-79
2022/03/22 11:09:00;;;;;;;;;;;14.90;27.70;;;;;;5022910;28;19933;-78
2022/03/22 11:11:28;;;;;;;;;;;15.10;28.60;;;;;;5022715;28;20194;-78
2022/03/22 11:13:54;;;;;;;;;;;15.20;27.80;;;;;;5022963;28;19909;-81
2022/03/22 11:16:20;;;;;;;;;;;15.30;27.50;;;;;;5023432;28;19909;-80
2022/03/22 11:18:46;;;;;;;;;;;15.50;27.80;;;;;;5022905;28;19917;-79
2022/03/22 11:21:16;;;;;;;;;;;15.80;28.00;;;;;;5023671;28;19916;-80
2022/03/22 11:23:44;;;;;;;;;;;16.10;27.00;;;;;;5023218;28;19913;-79
2022/03/22 11:26:18;;;;;;;;;;;16.30;27.00;;;;;;5039058;28;19952;-78
2022/03/22 11:28:44;;;;;;;;;;;16.50;27.30;;;;;;5023482;28;19917;-79
2022/03/22 11:31:10;;;;;;;;;;;16.70;25.80;;;;;;5021562;28;19910;-76
2022/03/22 11:36:25;;;;;;;;;;;16.90;25.60;;;;;;5022964;28;20109;-78
2022/03/22 11:38:52;;;;;;;;;;;17.20;25.80;;;;;;5023312;28;19913;-78
2022/03/22 11:44:27;;;;;;;;;;;18.10;25.70;;;;;;5023614;28;19964;-78
2022/03/22 11:47:08;;;;;;;;;;;19.20;24.90;;;;;;5021510;28;19976;-78
2022/03/22 11:49:58;;;;;;;;;;;20.30;23.90;;;;;;5022756;28;19921;-78
2022/03/22 11:52:45;;;;;;;;;;;21.80;23.20;;;;;;5021556;28;19964;-78
2022/03/22 11:55:22;;;;;;;;;;;23.00;21.40;;;;;;5021233;28;20135;-78
2022/03/22 11:58:04;;;;;;;;;;;24.70;20.90;;;;;;5038275;28;19913;-78
2022/03/22 12:00:51;;;;;;;;;;;26.40;19.90;;;;;;5022491;28;19917;-79
2022/03/22 12:03:19;;;;;;;;;;;27.70;19.80;;;;;;5037581;28;19917;-79
2022/03/22 12:05:45;;;;;;;;;;;28.80;19.50;;;;;;5021293;28;19921;-79
2022/03/22 12:08:14;;;;;;;;;;;30.10;18.80;;;;;;5005779;28;19941;-79
2022/03/22 12:10:45;;;;;;;;;;;29.90;18.30;;;;;;5022323;28;20143;-79
2022/03/22 12:13:12;;;;;;;;;;;30.80;18.70;;;;;;5006769;28;19916;-79
2022/03/22 12:15:38;;;;;;;;;;;31.90;18.50;;;;;;5025140;28;20005;-79
2022/03/22 12:18:03;;;;;;;;;;;32.80;17.90;;;;;;5026306;28;19917;-79
2022/03/22 12:20:29;;;;;;;;;;;33.60;17.50;;;;;;5026005;28;20157;-79
2022/03/22 12:22:58;;;;;;;;;;;34.00;16.80;;;;;;5027434;28;19948;-80
2022/03/22 12:25:28;;;;;;;;;;;34.20;16.80;;;;;;5025841;28;19916;-79
2022/03/22 12:27:57;;;;;;;;;;;34.50;17.30;;;;;;5027638;28;19925;-78
2022/03/22 12:30:27;;;;;;;;;;;35.30;16.90;;;;;;5026875;28;20227;-79
2022/03/22 12:32:54;;;;;;;;;;;35.10;16.80;;;;;;5042411;28;19909;-79
2022/03/22 12:35:20;;;;;;;;;;;34.90;16.80;;;;;;5026664;28;20089;-79
2022/03/22 12:37:46;;;;;;;;;;;35.80;16.70;;;;;;5042426;28;20218;-80
2022/03/22 12:40:16;;;;;;;;;;;36.50;16.90;;;;;;5025960;28;19909;-80
2022/03/22 12:42:42;;;;;;;;;;;37.00;16.80;;;;;;5026799;28;19925;-80
2022/03/22 12:45:10;;;;;;;;;;;38.00;16.60;;;;;;5010903;28;19989;-80
2022/03/22 12:47:37;;;;;;;;;;;38.10;16.30;;;;;;5027601;28;19909;-79
2022/03/22 12:50:09;;;;;;;;;;;38.30;16.10;;;;;;5027732;28;19913;-79
2022/03/22 12:52:35;;;;;;;;;;;37.90;16.00;;;;;;5041934;28;20274;-79
2022/03/22 12:55:01;;;;;;;;;;;37.50;16.20;;;;;;5010607;28;19909;-79
2022/03/22 12:57:29;;;;;;;;;;;38.40;16.10;;;;;;5027116;28;19916;-79
2022/03/22 12:59:54;;;;;;;;;;;38.30;15.70;;;;;;5027821;28;20179;-79
2022/03/22 13:02:20;;;;;;;;;;;38.20;15.90;;;;;;5026701;28;19955;-79
2022/03/22 13:04:49;;;;;;;;;;;38.00;16.00;;;;;;5028338;28;19980;-82
2022/03/22 13:07:25;;;;;;;;;;;37.90;16.10;;;;;;5010989;28;19909;-80
2022/03/22 13:12:38;;;;;;;;;;;38.70;16.20;;;;;;5044797;28;20025;-80
2022/03/22 13:15:11;;;;;;;;;;;39.10;16.50;;;;;;5028325;28;19917;-80
2022/03/22 13:17:41;;;;;;;;;;;39.60;16.00;;;;;;5028058;28;19910;-80
2022/03/22 13:20:17;;;;;;;;;;;40.00;15.90;;;;;;5044038;28;19917;-79
2022/03/22 13:23:05;;;;;;;;;;;39.80;15.90;;;;;;5042871;28;19909;-80
2022/03/22 13:25:35;;;;;;;;;;;39.40;16.00;;;;;;5028901;28;20212;-79
2022/03/22 13:28:05;;;;;;;;;;;39.80;16.30;;;;;;5025651;28;20216;-78
2022/03/22 13:30:32;;;;;;;;;;;39.70;15.80;;;;;;5026674;28;19910;-80
2022/03/22 13:33:14;;;;;;;;;;;39.30;15.80;;;;;;5042021;28;20247;-80
2022/03/22 13:35:53;;;;;;;;;;;39.40;15.80;;;;;;5027074;28;19933;-79
2022/03/22 13:38:19;;;;;;;;;;;39.10;15.90;;;;;;5041905;28;19968;-79
2022/03/22 13:40:46;;;;;;;;;;;37.90;16.20;;;;;;5025416;28;20140;-80
2022/03/22 13:43:12;;;;;;;;;;;38.60;15.90;;;;;;5024818;28;19944;-79
2022/03/22 13:45:58;;;;;;;;;;;40.00;15.60;;;;;;5025098;28;19925;-79
2022/03/22 13:48:24;;;;;;;;;;;40.00;15.50;;;;;;5025284;28;19909;-79
2022/03/22 13:50:52;;;;;;;;;;;38.40;15.80;;;;;;5025486;28;19917;-79
2022/03/22 13:53:19;;;;;;;;;;;39.20;16.00;;;;;;5025605;28;19909;-79
2022/03/22 13:55:49;;;;;;;;;;;39.50;15.50;;;;;;5026762;28;20204;-79
2022/03/22 13:58:19;;;;;;;;;;;39.30;15.60;;;;;;5026755;28;19910;-80
2022/03/22 14:00:46;;;;;;;;;;;38.60;15.60;;;;;;5025976;28;19941;-80
2022/03/22 14:03:13;;;;;;;;;;;38.70;15.80;;;;;;5025810;28;19913;-80
2022/03/22 14:05:40;;;;;;;;;;;39.30;15.40;;;;;;5042317;28;19940;-79
2022/03/22 14:08:06;;;;;;;;;;;38.50;15.40;;;;;;5026291;28;19952;-80
2022/03/22 14:10:32;;;;;;;;;;;38.00;15.80;;;;;;5009254;28;20157;-79
2022/03/22 14:12:58;;;;;;;;;;;38.30;15.70;;;;;;5005652;28;19968;-80
2022/03/22 14:15:24;;;;;;;;;;;38.10;15.90;;;;;;5022605;28;19925;-80
2022/03/22 14:17:51;;;;;;;;;;;37.50;15.60;;;;;;5005538;28;19953;-80
2022/03/22 14:20:17;;;;;;;;;;;37.80;16.00;;;;;;5007094;28;19910;-80
2022/03/22 14:22:46;;;;;;;;;;;38.60;15.50;;;;;;5004805;28;19918;-80
2022/03/22 14:25:12;;;;;;;;;;;37.80;15.60;;;;;;5019954;28;19914;-79
2022/03/22 14:27:38;;;;;;;;;;;37.60;15.80;;;;;;5041156;28;19928;-80
2022/03/22 14:30:15;;;;;;;;;;;37.70;15.80;;;;;;5026145;28;19918;-80
2022/03/22 14:32:45;;;;;;;;;;;37.60;15.90;;;;;;5040574;28;19909;-80
2022/03/22 14:37:56;;;;;;;;;;;36.70;16.00;;;;;;5025513;28;19920;-80
2022/03/22 14:40:22;;;;;;;;;;;36.10;16.00;;;;;;5025689;28;19913;-80
2022/03/22 14:42:50;;;;;;;;;;;35.70;15.90;;;;;;5025674;28;20132;-80
2022/03/22 14:45:16;;;;;;;;;;;37.00;15.80;;;;;;5033856;28;19973;-73
2022/03/22 14:47:42;;;;;;;;;;;36.40;15.90;;;;;;5014787;28;19910;-75
2022/03/22 14:50:08;;;;;;;;;;;36.40;16.10;;;;;;5023458;28;20208;-75
2022/03/22 14:55:18;;;;;;;;;;;36.50;15.70;;;;;;5021988;28;19923;-75
2022/03/22 15:00:29;;;;;;;;;;;34.80;16.10;;;;;;5022272;28;19940;-75
2022/03/22 15:02:56;;;;;;;;;;;34.70;16.10;;;;;;5021836;28;19917;-76
2022/03/22 15:05:31;;;;;;;;;;;34.60;16.30;;;;;;5023371;28;19909;-76
2022/03/22 15:07:57;;;;;;;;;;;35.20;16.20;;;;;;5023548;28;19909;-74